Springdale, Washington
Current Conditions -  °F | °C
As of 8:53 AM on Saturday 25 Oct 2014 (Local Time) from KDEW Reporting Station
Clear Clear  
Wind Chill: 43°   Ceiling: Unl
Heat Index: 49°   Visibility: 10mi
Dew Point: 39°   Wind: 15mph
Humidity: 69%   Direction: 30°NNE
Pressure: 29.69"   Gusts: NA
Location:  48.06°N, 117.74°W
Report Text: KDEW 251553Z AUTO 03013KT 10SM CLR 09/04 A2969 RMK AO2 SLP057 T00940039
Loading
Personal Weather Stations






























Interactive Weather Map
Tropical Storm Tracking
New forecast layout! Learn more

10-Day Weather Forecast

Advertisements
Track Severe Weather on mobile